Time;durP1;ratioP1;P1;durP2;ratioP2;P2;SDS_P1;SDS_P2;PMS_P1;PMS_P2;Temp;Humidity;BMP_temperature;BMP_pressure;BME280_temperature;BME280_humidity;BME280_pressure;Samples;Min_cycle;Max_cycle;Signal;HPM_P1;HPM_P2
2022/12/30 00:00:32;;;;;;;27.80;4.80;;;;;;;;;;5026219;28;20100;-81
2022/12/30 00:02:59;;;;;;;30.73;4.68;;;;;;;;;;5020397;28;20030;-81
2022/12/30 00:05:25;;;;;;;33.05;5.25;;;;;;;;;;5025199;28;20052;-81
2022/12/30 00:07:51;;;;;;;34.20;4.72;;;;;;;;;;5011386;28;20265;-81
2022/12/30 00:10:17;;;;;;;23.25;3.85;;;;;;;;;;5028182;28;20045;-81
2022/12/30 00:35:02;;;;;;;27.30;4.25;;;;;;;;;;5033773;28;20037;-80
2022/12/30 00:37:29;;;;;;;26.98;4.25;;;;;;;;;;5041222;28;20033;-81
2022/12/30 00:39:55;;;;;;;23.90;4.47;;;;;;;;;;5026093;28;20033;-81
2022/12/30 00:45:06;;;;;;;22.77;4.30;;;;;;;;;;5036578;28;20441;-85
2022/12/30 00:47:33;;;;;;;30.45;4.68;;;;;;;;;;5040398;28;20117;-81
2022/12/30 00:58:14;;;;;;;32.55;4.60;;;;;;;;;;5030191;28;20140;-81
2022/12/30 01:00:40;;;;;;;29.73;4.28;;;;;;;;;;5022820;28;20041;-82
2022/12/30 01:03:06;;;;;;;34.00;5.00;;;;;;;;;;5020809;28;20056;-84
2022/12/30 01:05:32;;;;;;;24.35;3.95;;;;;;;;;;5023695;28;20092;-82
2022/12/30 01:07:58;;;;;;;25.58;3.55;;;;;;;;;;4994539;28;20021;-81
2022/12/30 01:10:24;;;;;;;20.98;3.20;;;;;;;;;;5026429;28;20029;-82
2022/12/30 01:12:50;;;;;;;31.67;4.95;;;;;;;;;;5024434;28;20045;-82
2022/12/30 01:15:16;;;;;;;20.33;3.35;;;;;;;;;;5029225;28;20047;-81
2022/12/30 01:17:43;;;;;;;21.45;3.08;;;;;;;;;;5029203;28;20029;-81
2022/12/30 01:20:09;;;;;;;19.45;3.03;;;;;;;;;;5034373;28;20032;-82
2022/12/30 01:22:35;;;;;;;17.38;2.92;;;;;;;;;;5043443;28;20034;-82
2022/12/30 01:25:01;;;;;;;19.05;3.28;;;;;;;;;;5026797;28;20110;-82
2022/12/30 01:27:27;;;;;;;16.08;3.13;;;;;;;;;;5030928;28;20067;-82
2022/12/30 01:29:54;;;;;;;22.45;3.75;;;;;;;;;;5029947;28;20040;-81
2022/12/30 01:32:21;;;;;;;30.33;3.08;;;;;;;;;;5041361;28;20160;-82
2022/12/30 01:34:48;;;;;;;19.30;3.25;;;;;;;;;;5030658;28;20030;-81
2022/12/30 01:37:14;;;;;;;20.60;4.85;;;;;;;;;;5028409;28;20076;-82
2022/12/30 01:39:41;;;;;;;29.75;4.57;;;;;;;;;;5030976;28;20040;-80
2022/12/30 01:42:17;;;;;;;19.33;2.70;;;;;;;;;;5028745;28;20036;-81
2022/12/30 01:44:49;;;;;;;22.45;3.60;;;;;;;;;;5040587;28;20037;-81
2022/12/30 01:47:23;;;;;;;20.63;3.28;;;;;;;;;;5030258;28;20065;-81
2022/12/30 01:49:51;;;;;;;19.15;2.92;;;;;;;;;;5030430;28;20398;-82
2022/12/30 01:52:19;;;;;;;23.85;3.50;;;;;;;;;;5029847;28;20022;-81
2022/12/30 01:54:45;;;;;;;25.92;4.25;;;;;;;;;;5042851;28;20022;-82
2022/12/30 01:57:11;;;;;;;22.25;3.45;;;;;;;;;;5044501;28;20022;-81
2022/12/30 01:59:38;;;;;;;20.58;3.40;;;;;;;;;;5013725;28;20407;-81
2022/12/30 02:02:04;;;;;;;17.33;3.38;;;;;;;;;;5043041;28;20041;-82
2022/12/30 02:04:31;;;;;;;19.88;4.47;;;;;;;;;;5021178;28;20033;-81
2022/12/30 02:07:10;;;;;;;23.25;3.47;;;;;;;;;;5033597;28;20025;-82
2022/12/30 02:09:36;;;;;;;21.08;3.05;;;;;;;;;;5029599;28;20172;-82
2022/12/30 02:12:04;;;;;;;26.27;4.63;;;;;;;;;;5028759;28;20435;-81
2022/12/30 02:14:31;;;;;;;21.55;3.75;;;;;;;;;;5029577;28;20021;-82
2022/12/30 02:17:06;;;;;;;14.13;3.45;;;;;;;;;;5033545;28;20060;-83
2022/12/30 02:19:48;;;;;;;18.02;4.25;;;;;;;;;;5025515;28;20022;-80
2022/12/30 02:22:17;;;;;;;19.30;3.78;;;;;;;;;;5026799;28;20033;-82
2022/12/30 02:24:55;;;;;;;20.60;3.90;;;;;;;;;;5025870;28;20091;-81
2022/12/30 02:27:34;;;;;;;29.30;3.50;;;;;;;;;;5027758;28;20151;-81
2022/12/30 02:30:00;;;;;;;20.77;4.05;;;;;;;;;;5026024;28;20033;-83
2022/12/30 02:32:29;;;;;;;26.50;4.05;;;;;;;;;;5029350;28;20025;-81
2022/12/30 02:35:07;;;;;;;24.58;5.15;;;;;;;;;;5035555;28;20025;-81
2022/12/30 02:37:37;;;;;;;27.48;4.95;;;;;;;;;;5026427;28;20030;-82
2022/12/30 02:40:25;;;;;;;24.88;4.82;;;;;;;;;;5027003;28;20088;-82
2022/12/30 02:45:55;;;;;;;18.25;4.82;;;;;;;;;;5031216;28;20130;-82
2022/12/30 02:48:23;;;;;;;24.77;5.50;;;;;;;;;;5029728;28;20045;-82
2022/12/30 02:53:37;;;;;;;30.52;5.70;;;;;;;;;;5026559;28;20034;-81
2022/12/30 02:56:03;;;;;;;36.45;7.82;;;;;;;;;;5031190;28;20033;-82
2022/12/30 02:58:31;;;;;;;18.80;5.32;;;;;;;;;;5030732;28;20041;-81
2022/12/30 03:03:59;;;;;;;35.42;6.18;;;;;;;;;;5026639;28;20111;-81
2022/12/30 03:06:31;;;;;;;29.50;6.07;;;;;;;;;;5029655;28;20029;-81
2022/12/30 03:09:09;;;;;;;31.83;6.85;;;;;;;;;;5025816;28;20090;-81
2022/12/30 03:11:51;;;;;;;25.85;6.07;;;;;;;;;;5010381;28;20029;-80
2022/12/30 03:14:37;;;;;;;26.45;5.75;;;;;;;;;;5028609;28;20056;-81
2022/12/30 03:17:05;;;;;;;23.15;4.88;;;;;;;;;;5023760;28;20120;-86
2022/12/30 03:19:34;;;;;;;21.55;5.25;;;;;;;;;;5027949;28;20025;-81
2022/12/30 03:22:01;;;;;;;28.20;7.03;;;;;;;;;;5023088;28;20094;-81
2022/12/30 03:27:15;;;;;;;23.88;5.85;;;;;;;;;;5026621;28;20103;-80
2022/12/30 03:29:48;;;;;;;33.22;5.80;;;;;;;;;;5035908;28;20037;-81
2022/12/30 03:32:16;;;;;;;25.48;6.20;;;;;;;;;;5031917;28;20022;-79
2022/12/30 03:34:42;;;;;;;27.10;5.57;;;;;;;;;;5026822;28;20033;-80
2022/12/30 03:37:21;;;;;;;23.67;6.38;;;;;;;;;;5020010;28;20056;-81
2022/12/30 03:39:53;;;;;;;20.73;4.88;;;;;;;;;;5025351;28;20017;-81
2022/12/30 03:42:19;;;;;;;21.90;6.15;;;;;;;;;;5031485;28;20116;-81
2022/12/30 03:44:46;;;;;;;17.15;4.95;;;;;;;;;;5045374;28;20125;-80
2022/12/30 03:47:13;;;;;;;22.92;5.65;;;;;;;;;;5051402;28;20068;-82
2022/12/30 03:49:41;;;;;;;25.33;6.20;;;;;;;;;;5020887;28;20033;-81
2022/12/30 03:52:07;;;;;;;26.23;5.25;;;;;;;;;;5033146;28;20040;-81
2022/12/30 03:54:33;;;;;;;25.60;6.32;;;;;;;;;;5039470;28;20032;-80
2022/12/30 03:56:59;;;;;;;20.83;5.25;;;;;;;;;;5023783;28;20316;-80
2022/12/30 03:59:25;;;;;;;27.55;7.03;;;;;;;;;;5046172;28;20014;-81
2022/12/30 04:01:52;;;;;;;21.70;4.93;;;;;;;;;;5058093;28;20033;-81
2022/12/30 04:04:19;;;;;;;21.42;4.88;;;;;;;;;;5041670;28;20036;-80
2022/12/30 04:06:45;;;;;;;28.20;4.60;;;;;;;;;;5024274;28;20163;-81
2022/12/30 04:09:11;;;;;;;21.70;5.03;;;;;;;;;;5043345;28;20052;-81
2022/12/30 04:11:37;;;;;;;16.80;4.43;;;;;;;;;;5020782;28;20018;-82
2022/12/30 04:14:03;;;;;;;25.13;4.28;;;;;;;;;;5038796;28;20029;-81
2022/12/30 04:16:30;;;;;;;28.40;4.88;;;;;;;;;;5018491;28;20454;-80
2022/12/30 04:18:56;;;;;;;19.00;4.57;;;;;;;;;;5026512;28;20033;-81
2022/12/30 04:21:22;;;;;;;23.33;4.25;;;;;;;;;;5038064;28;20048;-81
2022/12/30 04:23:48;;;;;;;24.45;4.85;;;;;;;;;;5024401;28;20029;-82
2022/12/30 04:26:14;;;;;;;33.47;4.72;;;;;;;;;;5022437;28;20048;-82
2022/12/30 04:28:40;;;;;;;20.08;4.20;;;;;;;;;;5037143;28;20038;-81
2022/12/30 04:31:25;;;;;;;21.20;4.18;;;;;;;;;;5021907;28;20028;-81
2022/12/30 04:33:52;;;;;;;27.27;5.25;;;;;;;;;;5016215;28;20506;-81
2022/12/30 04:36:19;;;;;;;33.92;4.20;;;;;;;;;;5024419;28;20034;-81
2022/12/30 04:38:45;;;;;;;27.35;4.40;;;;;;;;;;5024589;28;20033;-81
2022/12/30 04:41:12;;;;;;;27.35;5.43;;;;;;;;;;5025065;28;20033;-81
2022/12/30 04:43:38;;;;;;;18.30;3.67;;;;;;;;;;5000181;28;20483;-82
2022/12/30 04:46:04;;;;;;;19.30;4.28;;;;;;;;;;5025613;28;20037;-81
2022/12/30 04:48:32;;;;;;;20.02;3.38;;;;;;;;;;5025241;28;20038;-80
2022/12/30 04:50:59;;;;;;;24.50;4.43;;;;;;;;;;5028673;28;20100;-80
2022/12/30 04:53:26;;;;;;;23.40;4.05;;;;;;;;;;5017425;28;20045;-79
2022/12/30 04:55:55;;;;;;;30.05;4.28;;;;;;;;;;5026256;28;20556;-79
2022/12/30 04:58:22;;;;;;;21.67;3.88;;;;;;;;;;5030941;28;20037;-80
2022/12/30 05:00:49;;;;;;;30.58;4.22;;;;;;;;;;5028143;28;20021;-81
2022/12/30 05:03:15;;;;;;;21.92;4.05;;;;;;;;;;5040207;28;20030;-80
2022/12/30 05:05:42;;;;;;;20.58;4.13;;;;;;;;;;5024645;28;20037;-80
2022/12/30 05:08:08;;;;;;;19.10;3.85;;;;;;;;;;5027654;28;20391;-80
2022/12/30 05:10:35;;;;;;;24.73;4.97;;;;;;;;;;5006057;28;20029;-81
2022/12/30 05:13:01;;;;;;;21.52;4.28;;;;;;;;;;5028011;28;20017;-80
2022/12/30 05:15:27;;;;;;;23.17;4.38;;;;;;;;;;5038864;28;20033;-80
2022/12/30 05:17:54;;;;;;;24.65;6.53;;;;;;;;;;5016352;28;20034;-81
2022/12/30 05:20:20;;;;;;;28.65;6.20;;;;;;;;;;5024137;28;20045;-80
2022/12/30 05:22:47;;;;;;;26.35;4.97;;;;;;;;;;5024799;28;20119;-80
2022/12/30 05:27:58;;;;;;;19.27;3.97;;;;;;;;;;5026329;28;20060;-80
2022/12/30 05:30:24;;;;;;;30.05;5.10;;;;;;;;;;5028091;28;20021;-80
2022/12/30 05:32:50;;;;;;;21.00;4.35;;;;;;;;;;5004301;28;20490;-80
2022/12/30 05:35:16;;;;;;;21.83;5.07;;;;;;;;;;5023485;28;20037;-81
2022/12/30 05:37:42;;;;;;;18.48;5.03;;;;;;;;;;5025602;28;20498;-80
2022/12/30 05:40:09;;;;;;;22.20;4.32;;;;;;;;;;5012944;28;20041;-80
2022/12/30 05:42:35;;;;;;;21.92;4.85;;;;;;;;;;5020814;28;20037;-80
2022/12/30 05:45:01;;;;;;;26.10;4.97;;;;;;;;;;5030018;28;20029;-82
2022/12/30 05:47:27;;;;;;;28.00;5.82;;;;;;;;;;5025914;28;20097;-79
2022/12/30 05:49:53;;;;;;;19.10;4.63;;;;;;;;;;5025358;28;20041;-80
2022/12/30 05:52:20;;;;;;;25.58;5.47;;;;;;;;;;5025366;28;20076;-80
2022/12/30 05:54:46;;;;;;;25.77;4.40;;;;;;;;;;5029095;28;20073;-79
2022/12/30 05:57:12;;;;;;;27.15;5.47;;;;;;;;;;5029628;28;20060;-80
2022/12/30 05:59:39;;;;;;;19.92;4.53;;;;;;;;;;5021964;28;20116;-81
2022/12/30 06:02:05;;;;;;;20.67;3.53;;;;;;;;;;5027453;28;20052;-79
2022/12/30 06:04:32;;;;;;;24.92;6.63;;;;;;;;;;5030661;28;20136;-81
2022/12/30 06:06:59;;;;;;;22.95;4.32;;;;;;;;;;5028913;28;20026;-81
2022/12/30 06:09:25;;;;;;;32.85;4.85;;;;;;;;;;5028497;28;20029;-80
2022/12/30 06:11:52;;;;;;;27.08;5.22;;;;;;;;;;5027137;28;20064;-80
2022/12/30 06:14:20;;;;;;;19.00;4.68;;;;;;;;;;5027748;28;20380;-81
2022/12/30 06:16:47;;;;;;;34.03;6.28;;;;;;;;;;5030380;28;20056;-79
2022/12/30 06:19:13;;;;;;;27.77;6.47;;;;;;;;;;5028058;28;20079;-80
2022/12/30 06:21:39;;;;;;;23.67;5.00;;;;;;;;;;5001905;28;20055;-79
2022/12/30 06:24:05;;;;;;;18.73;4.05;;;;;;;;;;5027728;28;20037;-80
2022/12/30 06:26:31;;;;;;;25.75;5.55;;;;;;;;;;5037891;28;20498;-79
2022/12/30 06:28:58;;;;;;;21.15;4.32;;;;;;;;;;5027955;28;20048;-80
2022/12/30 06:31:24;;;;;;;31.48;5.03;;;;;;;;;;5028115;28;20052;-80
2022/12/30 06:33:50;;;;;;;24.83;4.65;;;;;;;;;;5024374;28;20079;-81
2022/12/30 06:36:16;;;;;;;23.05;4.60;;;;;;;;;;5009489;28;20112;-81
2022/12/30 06:38:42;;;;;;;27.25;4.45;;;;;;;;;;5025413;28;20040;-81
2022/12/30 06:41:08;;;;;;;29.45;4.70;;;;;;;;;;5035500;28;20236;-80
2022/12/30 06:43:34;;;;;;;25.90;5.30;;;;;;;;;;5043370;28;20044;-80
2022/12/30 06:46:05;;;;;;;16.98;3.58;;;;;;;;;;5038890;28;20040;-80
2022/12/30 06:48:31;;;;;;;29.35;5.75;;;;;;;;;;5010102;28;20061;-81
2022/12/30 06:51:01;;;;;;;37.28;5.30;;;;;;;;;;5040771;28;20049;-81
2022/12/30 06:53:28;;;;;;;26.70;6.10;;;;;;;;;;5034002;28;20079;-81
2022/12/30 06:55:54;;;;;;;27.35;4.80;;;;;;;;;;5032992;28;20129;-80
2022/12/30 06:58:20;;;;;;;26.77;4.63;;;;;;;;;;5024723;28;20132;-80
2022/12/30 07:00:47;;;;;;;25.08;4.45;;;;;;;;;;5024895;28;20021;-82
2022/12/30 07:03:13;;;;;;;28.00;5.47;;;;;;;;;;5025813;28;20037;-80
2022/12/30 07:05:39;;;;;;;26.05;5.00;;;;;;;;;;5028169;28;20030;-81
2022/12/30 07:08:25;;;;;;;19.48;4.65;;;;;;;;;;5027175;28;20026;-80
2022/12/30 07:10:54;;;;;;;28.13;5.07;;;;;;;;;;5027213;28;20327;-81
2022/12/30 07:13:20;;;;;;;38.45;5.80;;;;;;;;;;5028546;28;20033;-81
2022/12/30 07:15:47;;;;;;;27.38;5.30;;;;;;;;;;5022567;28;20072;-82
2022/12/30 07:18:15;;;;;;;23.83;4.70;;;;;;;;;;5027265;28;20026;-82
2022/12/30 07:20:41;;;;;;;22.45;4.97;;;;;;;;;;5034826;28;20039;-81
2022/12/30 07:23:07;;;;;;;26.05;5.70;;;;;;;;;;5029823;28;20029;-81
2022/12/30 07:25:33;;;;;;;26.80;5.63;;;;;;;;;;5026740;28;20075;-80
2022/12/30 07:28:00;;;;;;;29.05;6.57;;;;;;;;;;5028374;28;20037;-82
2022/12/30 07:30:27;;;;;;;34.60;6.63;;;;;;;;;;5048001;28;20060;-80
2022/12/30 07:32:53;;;;;;;30.95;5.65;;;;;;;;;;5024016;28;20057;-80
2022/12/30 07:35:19;;;;;;;27.40;5.95;;;;;;;;;;5023453;28;20041;-81
2022/12/30 07:37:45;;;;;;;35.75;6.07;;;;;;;;;;5027291;28;20547;-80
2022/12/30 07:40:12;;;;;;;31.08;5.82;;;;;;;;;;5033898;28;20425;-81
2022/12/30 07:42:38;;;;;;;22.80;5.00;;;;;;;;;;5011354;28;20040;-82
2022/12/30 07:45:05;;;;;;;36.85;6.13;;;;;;;;;;5017195;28;20029;-81
2022/12/30 07:47:32;;;;;;;29.00;6.05;;;;;;;;;;5021166;28;20076;-81
2022/12/30 07:49:59;;;;;;;24.83;6.10;;;;;;;;;;5029208;28;20505;-82
2022/12/30 07:52:25;;;;;;;29.02;5.80;;;;;;;;;;5030171;28;20026;-82
2022/12/30 07:54:51;;;;;;;29.88;6.00;;;;;;;;;;5029059;28;20462;-81
2022/12/30 07:57:18;;;;;;;27.55;6.38;;;;;;;;;;4995437;28;20030;-82
2022/12/30 07:59:44;;;;;;;34.00;6.00;;;;;;;;;;5022367;28;20124;-80
2022/12/30 08:02:13;;;;;;;38.42;6.88;;;;;;;;;;5035962;28;20026;-80
2022/12/30 08:04:39;;;;;;;23.98;5.75;;;;;;;;;;5035593;28;20033;-82
2022/12/30 08:07:05;;;;;;;31.55;8.80;;;;;;;;;;5029314;28;20123;-81
2022/12/30 08:09:31;;;;;;;27.13;7.13;;;;;;;;;;5030372;28;20021;-82
2022/12/30 08:11:57;;;;;;;27.63;6.70;;;;;;;;;;5026091;28;20052;-83
2022/12/30 08:14:42;;;;;;;32.47;7.38;;;;;;;;;;5025532;28;20053;-81
2022/12/30 08:17:09;;;;;;;31.00;9.07;;;;;;;;;;5030671;28;20030;-81
2022/12/30 08:19:35;;;;;;;32.95;7.30;;;;;;;;;;5033864;28;20108;-82
2022/12/30 08:22:01;;;;;;;27.05;7.30;;;;;;;;;;5029820;28;20043;-81
2022/12/30 08:24:27;;;;;;;26.92;6.57;;;;;;;;;;5054041;28;20025;-81
2022/12/30 08:26:53;;;;;;;27.27;7.22;;;;;;;;;;5021356;28;20335;-80
2022/12/30 08:29:19;;;;;;;22.77;6.25;;;;;;;;;;5021369;28;20040;-82
2022/12/30 08:31:49;;;;;;;20.42;6.45;;;;;;;;;;5012189;28;20072;-80
2022/12/30 08:34:19;;;;;;;14.88;5.85;;;;;;;;;;5027915;28;20064;-82
2022/12/30 08:36:45;;;;;;;23.95;7.13;;;;;;;;;;5028107;28;20095;-81
2022/12/30 08:39:12;;;;;;;21.08;7.22;;;;;;;;;;5029704;28;20079;-81
2022/12/30 08:41:43;;;;;;;23.95;7.35;;;;;;;;;;5027912;28;20043;-82
2022/12/30 08:44:09;;;;;;;23.65;7.22;;;;;;;;;;5030473;28;20103;-82
2022/12/30 08:46:37;;;;;;;32.78;7.70;;;;;;;;;;5028918;28;20036;-81
2022/12/30 08:49:03;;;;;;;22.50;6.32;;;;;;;;;;5030361;28;20045;-81
2022/12/30 08:51:30;;;;;;;24.60;6.55;;;;;;;;;;5029400;28;20072;-80
2022/12/30 08:53:57;;;;;;;20.95;6.75;;;;;;;;;;5030732;28;20028;-81
2022/12/30 08:56:24;;;;;;;18.25;6.45;;;;;;;;;;5030368;28;20125;-82
2022/12/30 08:58:51;;;;;;;23.10;6.97;;;;;;;;;;5030789;28;20033;-83
2022/12/30 09:01:21;;;;;;;21.25;6.28;;;;;;;;;;5029663;28;20048;-82
2022/12/30 09:03:48;;;;;;;17.25;5.95;;;;;;;;;;5029215;28;20029;-81
2022/12/30 09:06:15;;;;;;;18.63;6.20;;;;;;;;;;5028431;28;20030;-82
2022/12/30 09:08:44;;;;;;;20.42;5.75;;;;;;;;;;5030089;28;20439;-82
2022/12/30 09:11:14;;;;;;;30.90;7.03;;;;;;;;;;5028574;28;20080;-81
2022/12/30 09:13:41;;;;;;;19.92;6.28;;;;;;;;;;5030501;28;20033;-82
2022/12/30 09:16:09;;;;;;;22.10;6.07;;;;;;;;;;5030021;28;20037;-82
2022/12/30 09:18:35;;;;;;;19.70;5.40;;;;;;;;;;5030078;28;20467;-82
2022/12/30 09:21:02;;;;;;;25.85;5.50;;;;;;;;;;5029496;28;20103;-83
2022/12/30 09:23:28;;;;;;;18.73;5.45;;;;;;;;;;5030701;28;20483;-83
2022/12/30 09:25:54;;;;;;;16.10;4.78;;;;;;;;;;5031000;28;20049;-83
2022/12/30 09:28:20;;;;;;;22.92;4.47;;;;;;;;;;5028549;28;20044;-81
2022/12/30 09:30:46;;;;;;;13.55;4.93;;;;;;;;;;5029228;28;20057;-81
2022/12/30 09:33:13;;;;;;;14.45;4.88;;;;;;;;;;5045574;28;20045;-83
2022/12/30 09:35:40;;;;;;;12.60;4.90;;;;;;;;;;5031586;28;20025;-82
2022/12/30 09:38:06;;;;;;;19.58;4.20;;;;;;;;;;5032713;28;20084;-81
2022/12/30 09:40:41;;;;;;;18.23;3.90;;;;;;;;;;5033013;28;20042;-82
2022/12/30 09:43:28;;;;;;;14.57;4.40;;;;;;;;;;5033814;28;20033;-81
2022/12/30 09:45:54;;;;;;;14.52;3.35;;;;;;;;;;5033906;28;20033;-84
2022/12/30 09:48:23;;;;;;;22.48;4.18;;;;;;;;;;5048854;28;20095;-81
2022/12/30 09:51:01;;;;;;;11.95;3.40;;;;;;;;;;5032704;28;20052;-81
2022/12/30 09:53:35;;;;;;;14.43;3.97;;;;;;;;;;5032109;28;20117;-82
2022/12/30 09:56:03;;;;;;;11.35;3.13;;;;;;;;;;5033669;28;20045;-82
2022/12/30 09:58:30;;;;;;;11.85;3.33;;;;;;;;;;5032996;28;20029;-80
2022/12/30 10:00:59;;;;;;;23.38;7.03;;;;;;;;;;5048275;28;20037;-82
2022/12/30 10:03:26;;;;;;;10.00;4.45;;;;;;;;;;5033417;28;20034;-82
2022/12/30 10:05:52;;;;;;;12.38;3.70;;;;;;;;;;5033301;28;20060;-82
2022/12/30 10:08:27;;;;;;;11.77;4.07;;;;;;;;;;5033325;28;20017;-81
2022/12/30 10:10:59;;;;;;;10.65;4.13;;;;;;;;;;5031975;28;20379;-82
2022/12/30 10:13:34;;;;;;;13.90;3.38;;;;;;;;;;5031761;28;20029;-81
2022/12/30 10:16:07;;;;;;;20.88;3.45;;;;;;;;;;5048797;28;20458;-81
2022/12/30 10:18:47;;;;;;;10.93;3.10;;;;;;;;;;5032886;28;20029;-82
2022/12/30 10:21:43;;;;;;;10.02;4.00;;;;;;;;;;5032203;28;20091;-81
2022/12/30 10:24:41;;;;;;;8.75;3.53;;;;;;;;;;5028824;28;20030;-81
2022/12/30 10:27:18;;;;;;;11.10;3.00;;;;;;;;;;5020085;28;20312;-82
2022/12/30 10:29:45;;;;;;;16.00;3.20;;;;;;;;;;5048504;28;20033;-81
2022/12/30 10:32:19;;;;;;;7.05;2.60;;;;;;;;;;5049010;28;20068;-82
2022/12/30 10:34:46;;;;;;;8.30;3.00;;;;;;;;;;5033475;28;20091;-82
2022/12/30 10:37:16;;;;;;;12.98;3.20;;;;;;;;;;5048549;28;20091;-82
2022/12/30 10:39:45;;;;;;;8.00;3.03;;;;;;;;;;5033296;28;20041;-82
2022/12/30 10:42:27;;;;;;;11.52;2.85;;;;;;;;;;5032731;28;20022;-81
2022/12/30 10:45:11;;;;;;;9.90;3.35;;;;;;;;;;5033147;28;20034;-82
2022/12/30 10:47:56;;;;;;;10.75;2.28;;;;;;;;;;5031527;28;20034;-82
2022/12/30 10:50:39;;;;;;;13.20;3.03;;;;;;;;;;5048656;28;20079;-82
2022/12/30 10:53:09;;;;;;;7.07;2.67;;;;;;;;;;5032911;28;20382;-82
2022/12/30 10:55:41;;;;;;;9.13;2.65;;;;;;;;;;5031417;28;20045;-81
2022/12/30 10:58:24;;;;;;;9.80;2.40;;;;;;;;;;5032008;28;20065;-82
2022/12/30 11:00:50;;;;;;;12.60;2.95;;;;;;;;;;5031446;28;20371;-82
2022/12/30 11:03:46;;;;;;;9.30;3.08;;;;;;;;;;5031629;28;20457;-82
2022/12/30 11:06:15;;;;;;;11.70;2.63;;;;;;;;;;5022408;28;20128;-82
2022/12/30 11:08:41;;;;;;;7.40;2.63;;;;;;;;;;5032557;28;20431;-81
2022/12/30 11:11:08;;;;;;;11.95;3.25;;;;;;;;;;5032230;28;20116;-82
2022/12/30 11:16:26;;;;;;;7.53;2.38;;;;;;;;;;5031411;28;20057;-83
2022/12/30 11:18:53;;;;;;;8.73;2.22;;;;;;;;;;5014158;28;20156;-82
2022/12/30 11:21:27;;;;;;;9.20;2.30;;;;;;;;;;5030975;28;20119;-82
2022/12/30 11:23:55;;;;;;;11.35;2.58;;;;;;;;;;5030011;28;20034;-82
2022/12/30 11:26:22;;;;;;;8.80;2.75;;;;;;;;;;5042010;28;20124;-82
2022/12/30 11:28:51;;;;;;;11.88;2.30;;;;;;;;;;5029815;28;20049;-81
2022/12/30 11:31:18;;;;;;;8.82;2.50;;;;;;;;;;5033841;28;20049;-82
2022/12/30 11:33:54;;;;;;;9.55;2.38;;;;;;;;;;5026562;28;20025;-82
2022/12/30 11:36:23;;;;;;;9.55;2.70;;;;;;;;;;5031194;28;20025;-81
2022/12/30 11:38:51;;;;;;;17.75;2.80;;;;;;;;;;5030946;28;20083;-83
2022/12/30 11:41:17;;;;;;;9.10;2.50;;;;;;;;;;5028971;28;20495;-81
2022/12/30 11:43:50;;;;;;;17.23;2.50;;;;;;;;;;5040267;28;20463;-82
2022/12/30 11:46:24;;;;;;;15.10;3.03;;;;;;;;;;5030548;28;20091;-80
2022/12/30 11:48:54;;;;;;;11.35;2.40;;;;;;;;;;5015567;28;20041;-80
2022/12/30 11:51:20;;;;;;;16.83;3.75;;;;;;;;;;5032838;28;20439;-81
2022/12/30 11:53:47;;;;;;;14.70;3.03;;;;;;;;;;5048392;28;20029;-81
2022/12/30 11:56:20;;;;;;;11.15;2.50;;;;;;;;;;5042386;28;20076;-81
2022/12/30 11:58:46;;;;;;;16.63;4.53;;;;;;;;;;5038930;28;20037;-80
2022/12/30 12:01:12;;;;;;;15.82;2.47;;;;;;;;;;5012340;28;20026;-80
2022/12/30 12:03:53;;;;;;;9.50;2.58;;;;;;;;;;5014562;28;20152;-83
2022/12/30 12:06:19;;;;;;;10.63;3.70;;;;;;;;;;5030235;28;20044;-81
2022/12/30 12:08:48;;;;;;;12.65;3.38;;;;;;;;;;5030288;28;20095;-80
2022/12/30 12:11:16;;;;;;;13.90;2.45;;;;;;;;;;5030224;28;20033;-81
2022/12/30 12:14:08;;;;;;;10.63;2.42;;;;;;;;;;5044044;28;20025;-80
2022/12/30 12:16:58;;;;;;;12.32;2.47;;;;;;;;;;5027718;28;20047;-80
2022/12/30 12:19:29;;;;;;;15.25;3.17;;;;;;;;;;5005373;28;20041;-80
2022/12/30 12:21:59;;;;;;;11.98;2.38;;;;;;;;;;5036322;28;20024;-81
2022/12/30 12:24:45;;;;;;;12.93;2.72;;;;;;;;;;5043395;28;20063;-82
2022/12/30 12:27:11;;;;;;;9.65;2.75;;;;;;;;;;5030895;28;20509;-82
2022/12/30 12:29:37;;;;;;;9.80;2.63;;;;;;;;;;5029602;28;20026;-82
2022/12/30 12:32:07;;;;;;;11.02;2.33;;;;;;;;;;5029232;28;20021;-82
2022/12/30 12:34:36;;;;;;;10.63;2.50;;;;;;;;;;5022798;28;20109;-82
2022/12/30 12:37:08;;;;;;;16.60;3.08;;;;;;;;;;5026627;28;20026;-81
2022/12/30 12:39:34;;;;;;;14.55;2.65;;;;;;;;;;5038530;28;20044;-83
2022/12/30 12:42:07;;;;;;;51.72;15.52;;;;;;;;;;5039971;28;20030;-85
2022/12/30 12:44:51;;;;;;;13.23;3.85;;;;;;;;;;5030509;28;20077;-82
2022/12/30 12:47:27;;;;;;;9.70;2.33;;;;;;;;;;5030459;28;20087;-84
2022/12/30 12:50:03;;;;;;;16.67;3.17;;;;;;;;;;5019112;28;20156;-85
2022/12/30 12:52:32;;;;;;;11.90;2.83;;;;;;;;;;5032369;28;20052;-83
2022/12/30 12:55:30;;;;;;;15.35;2.90;;;;;;;;;;5031440;28;20171;-84
2022/12/30 12:58:07;;;;;;;29.02;14.40;;;;;;;;;;4979429;28;20034;-84
2022/12/30 13:00:45;;;;;;;12.60;2.90;;;;;;;;;;5024106;28;20038;-88
2022/12/30 13:03:30;;;;;;;19.52;5.25;;;;;;;;;;5052378;28;20591;-81
2022/12/30 13:06:04;;;;;;;13.75;2.97;;;;;;;;;;5037439;28;20033;-83
2022/12/30 13:08:49;;;;;;;13.95;3.50;;;;;;;;;;5043653;28;20026;-81
2022/12/30 13:11:20;;;;;;;8.98;2.75;;;;;;;;;;5039896;28;20029;-81
2022/12/30 13:13:53;;;;;;;13.85;2.63;;;;;;;;;;5033776;28;20097;-82
2022/12/30 13:16:21;;;;;;;17.88;3.60;;;;;;;;;;5047565;28;20206;-83
2022/12/30 13:18:49;;;;;;;15.45;2.83;;;;;;;;;;5064162;28;20044;-83
2022/12/30 13:21:19;;;;;;;15.45;2.83;;;;;;;;;;5067655;28;20028;-86
2022/12/30 13:23:48;;;;;;;13.10;3.70;;;;;;;;;;5053618;28;20410;-82
2022/12/30 13:26:14;;;;;;;15.05;2.78;;;;;;;;;;5065307;28;20098;-83
2022/12/30 13:28:41;;;;;;;17.38;4.00;;;;;;;;;;5028547;28;20033;-84
2022/12/30 13:31:08;;;;;;;14.45;2.95;;;;;;;;;;5036448;28;20025;-87
2022/12/30 13:33:40;;;;;;;15.25;3.53;;;;;;;;;;5034752;28;20036;-84
2022/12/30 13:36:29;;;;;;;15.43;3.00;;;;;;;;;;5040716;28;20120;-88
2022/12/30 13:39:01;;;;;;;12.07;2.40;;;;;;;;;;5035181;28;20054;-83
2022/12/30 13:41:30;;;;;;;12.40;3.25;;;;;;;;;;5033775;28;20048;-83
2022/12/30 13:44:02;;;;;;;11.88;2.45;;;;;;;;;;5030507;28;20041;-84
2022/12/30 13:46:29;;;;;;;12.48;2.65;;;;;;;;;;5044855;28;20065;-85
2022/12/30 13:49:00;;;;;;;11.43;2.58;;;;;;;;;;5030043;28;20056;-82
2022/12/30 13:51:27;;;;;;;14.45;2.65;;;;;;;;;;5027846;28;20038;-82
2022/12/30 13:53:56;;;;;;;8.80;2.60;;;;;;;;;;5049643;28;20021;-83
2022/12/30 13:56:42;;;;;;;13.45;3.15;;;;;;;;;;5025321;28;20042;-85
2022/12/30 13:59:20;;;;;;;10.05;1.73;;;;;;;;;;5027412;28;20051;-82
2022/12/30 14:01:47;;;;;;;11.40;2.22;;;;;;;;;;5019663;28;20668;-87
2022/12/30 14:04:13;;;;;;;8.20;2.03;;;;;;;;;;5044472;28;20113;-88
2022/12/30 14:06:49;;;;;;;8.18;1.70;;;;;;;;;;5035297;28;20077;-84
2022/12/30 14:09:23;;;;;;;8.43;2.40;;;;;;;;;;5039203;28;20036;-82
2022/12/30 14:12:04;;;;;;;10.40;3.13;;;;;;;;;;5028616;28;20034;-83
2022/12/30 14:14:30;;;;;;;10.05;3.13;;;;;;;;;;5029599;28;20030;-82
2022/12/30 14:17:23;;;;;;;16.23;2.92;;;;;;;;;;5036989;28;20095;-85
2022/12/30 14:19:58;;;;;;;6.40;2.33;;;;;;;;;;5034907;28;20133;-83
2022/12/30 14:22:40;;;;;;;14.35;5.60;;;;;;;;;;5018249;28;20029;-84
2022/12/30 14:25:16;;;;;;;11.85;2.67;;;;;;;;;;5033110;28;20033;-84
2022/12/30 14:27:44;;;;;;;10.40;2.55;;;;;;;;;;5044795;28;20039;-84
2022/12/30 14:30:40;;;;;;;9.55;3.95;;;;;;;;;;5036432;28;20037;-84
2022/12/30 14:33:15;;;;;;;6.50;2.22;;;;;;;;;;5028801;28;20048;-87
2022/12/30 14:35:56;;;;;;;7.75;2.38;;;;;;;;;;5030628;28;20414;-85
2022/12/30 14:38:26;;;;;;;5.55;2.15;;;;;;;;;;5033143;28;20037;-85
2022/12/30 14:40:59;;;;;;;4.22;2.63;;;;;;;;;;5033683;28;20044;-87
2022/12/30 14:43:27;;;;;;;4.35;2.15;;;;;;;;;;5032259;28;20033;-84
2022/12/30 14:46:12;;;;;;;5.72;3.03;;;;;;;;;;5032231;28;20033;-86
2022/12/30 14:48:57;;;;;;;10.07;3.63;;;;;;;;;;5033345;28;20115;-87
2022/12/30 14:51:24;;;;;;;16.17;9.77;;;;;;;;;;5034087;28;20025;-85
2022/12/30 14:53:50;;;;;;;16.42;10.20;;;;;;;;;;5032312;28;20087;-87
2022/12/30 14:56:20;;;;;;;4.00;2.67;;;;;;;;;;5015827;28;20034;-86
2022/12/30 14:58:47;;;;;;;5.70;2.28;;;;;;;;;;5033597;28;20029;-86
2022/12/30 15:01:13;;;;;;;6.68;2.28;;;;;;;;;;5033403;28;20055;-86
2022/12/30 15:03:39;;;;;;;4.05;2.78;;;;;;;;;;5032202;28;20079;-87
2022/12/30 15:06:07;;;;;;;7.18;4.43;;;;;;;;;;5014917;28;20118;-85
2022/12/30 15:08:35;;;;;;;6.05;2.45;;;;;;;;;;5031270;28;20022;-86
2022/12/30 15:11:08;;;;;;;4.93;2.80;;;;;;;;;;5033763;28;20092;-85
2022/12/30 15:13:49;;;;;;;3.80;2.80;;;;;;;;;;5032774;28;20070;-83
2022/12/30 15:16:18;;;;;;;5.10;3.65;;;;;;;;;;5014671;28;20086;-84
2022/12/30 15:18:48;;;;;;;7.35;3.30;;;;;;;;;;5031136;28;20025;-87
2022/12/30 15:21:21;;;;;;;4.53;2.80;;;;;;;;;;5033204;28;20026;-84
2022/12/30 15:23:58;;;;;;;4.82;3.13;;;;;;;;;;5033037;28;20029;-84
2022/12/30 15:26:24;;;;;;;8.13;3.05;;;;;;;;;;5031620;28;20047;-86
2022/12/30 15:28:51;;;;;;;4.78;3.20;;;;;;;;;;5016386;28;20525;-87
2022/12/30 15:31:22;;;;;;;5.95;3.25;;;;;;;;;;5032994;28;20033;-87
2022/12/30 15:33:55;;;;;;;6.25;4.88;;;;;;;;;;5014870;28;20036;-86
2022/12/30 15:36:22;;;;;;;5.28;3.92;;;;;;;;;;5031431;28;20370;-87